Time;durP1;ratioP1;P1;durP2;ratioP2;P2;SDS_P1;SDS_P2;PMS_P1;PMS_P2;Temp;Humidity;BMP_temperature;BMP_pressure;BME280_temperature;BME280_humidity;BME280_pressure;Samples;Min_cycle;Max_cycle;Signal;HPM_P1;HPM_P2
2023/07/13 00:06:51;;;;;;;11.73;10.40;;;18.70;99.90;;;;;;5691355;24;20284;-82
2023/07/13 01:37:27;;;;;;;14.63;13.23;;;18.80;99.90;;;;;;5655948;24;20621;-88
2023/07/13 02:02:49;;;;;;;17.13;13.73;;;19.00;99.90;;;;;;5550054;25;20687;-84
2023/07/13 02:28:39;;;;;;;15.13;13.23;;;18.70;99.90;;;;;;5626380;24;20207;-84
2023/07/13 02:58:59;;;;;;;14.73;13.33;;;18.70;99.90;;;;;;5726003;24;20230;-81
2023/07/13 03:19:18;;;;;;;15.00;13.43;;;18.70;99.90;;;;;;5678851;24;20192;-80
2023/07/13 04:45:05;;;;;;;15.15;13.73;;;22.20;99.90;;;;;;5595481;24;20757;-83
2023/07/13 06:01:44;;;;;;;16.23;13.80;;;24.10;99.90;;;;;;5768476;24;20207;-83
2023/07/13 06:22:05;;;;;;;15.48;13.70;;;23.00;99.90;;;;;;5594257;24;20300;-81
2023/07/13 06:52:27;;;;;;;10.40;9.50;;;23.80;93.20;;;;;;5718045;24;21075;-82
2023/07/13 07:12:52;;;;;;;8.48;6.53;;;24.20;87.30;;;;;;5671619;24;20268;-82
2023/07/13 08:23:39;;;;;;;5.15;4.68;;;26.90;63.90;;;;;;5581906;24;20608;-81
2023/07/13 08:49:02;;;;;;;5.22;4.80;;;27.90;61.30;;;;;;5548225;24;20243;-81
2023/07/13 09:29:24;;;;;;;5.90;5.30;;;28.60;60.80;;;;;;5583534;24;20467;-80
2023/07/13 09:54:59;;;;;;;6.65;4.90;;;27.30;61.80;;;;;;5596626;24;20981;-84
2023/07/13 10:20:31;;;;;;;5.63;4.57;;;24.80;76.90;;;;;;5662627;24;20465;-82
2023/07/13 10:45:25;;;;;;;4.30;3.90;;;23.20;80.90;;;;;;5579401;25;20428;-83
2023/07/13 11:46:39;;;;;;;14.23;11.27;;;19.20;99.90;;;;;;5759351;24;20181;-84
2023/07/13 13:07:46;;;;;;;13.77;12.30;;;19.90;99.90;;;;;;5710165;24;20169;-86
2023/07/13 13:28:02;;;;;;;18.60;13.10;;;20.10;99.90;;;;;;5489671;25;20186;-83
2023/07/13 13:58:29;;;;;;;23.10;17.57;;;20.30;99.90;;;;;;5678839;24;20654;-85
2023/07/13 14:18:38;;;;;;;19.27;17.30;;;20.50;99.90;;;;;;5556272;24;20207;-83
2023/07/13 14:48:41;;;;;;;12.88;11.68;;;20.70;99.90;;;;;;5465574;25;20755;-84
2023/07/13 15:04:27;;;;;;;10.60;9.50;;;20.90;99.90;;;;;;5516922;25;20217;-83
2023/07/13 15:29:30;;;;;;;8.40;7.60;;;20.40;99.90;;;;;;5580382;25;20217;-82
2023/07/13 15:49:59;;;;;;;8.23;7.53;;;20.00;99.90;;;;;;5592309;24;20212;-83
2023/07/13 16:20:36;;;;;;;11.67;9.53;;;19.90;99.90;;;;;;5756451;24;20438;-81
2023/07/13 16:40:40;;;;;;;10.00;9.10;;;20.30;99.90;;;;;;5696610;24;20579;-85
2023/07/13 17:10:44;;;;;;;11.07;9.93;;;20.30;99.90;;;;;;5761534;24;20388;-82
2023/07/13 17:31:41;;;;;;;10.93;9.80;;;20.40;99.90;;;;;;5793419;24;20639;-84
2023/07/13 18:02:00;;;;;;;10.03;8.90;;;20.60;99.90;;;;;;5837738;24;20253;-84
2023/07/13 18:32:27;;;;;;;9.90;8.87;;;20.20;99.90;;;;;;5868830;24;20245;-86
2023/07/13 19:02:18;;;;;;;11.10;10.10;;;19.00;99.90;;;;;;5923431;24;20241;-85
2023/07/13 19:32:47;;;;;;;13.20;12.00;;;18.20;99.90;;;;;;5685387;25;20681;-86
2023/07/13 20:28:30;;;;;;;14.03;12.70;;;17.80;99.90;;;;;;5646717;25;20251;-86
2023/07/13 20:48:49;;;;;;;13.77;12.33;;;17.80;99.90;;;;;;5796174;24;20244;-85
2023/07/13 21:14:40;;;;;;;15.37;13.83;;;17.40;99.90;;;;;;5852964;24;20189;-90
2023/07/13 21:40:00;;;;;;;14.30;12.90;;;17.80;99.90;;;;;;5828832;24;20193;-82
2023/07/13 22:15:03;;;;;;;17.50;15.70;;;17.30;99.90;;;;;;5898590;24;20608;-87
2023/07/13 22:35:48;;;;;;;18.37;16.50;;;17.30;99.90;;;;;;5779085;24;20633;-87
2023/07/13 23:26:32;;;;;;;22.03;19.77;;;17.40;99.90;;;;;;5821916;24;20250;-86
2023/07/13 23:52:01;;;;;;;21.40;19.40;;;17.20;99.90;;;;;;5734758;24;20335;-87
